Alleene, Arkansas
Current Conditions -  °F | °C
As of 2:53 PM on Tuesday 21 Oct 2014 (Local Time) from KDEQ Reporting Station
Clear Clear  
Wind Chill: 80°   Ceiling: Unl
Heat Index: 82°   Visibility: 10mi
Dew Point: 64°   Wind: 0mph
Humidity: 58%   Direction: NA
Pressure: 30.02"   Gusts: NA
Location:  33.77°N, 94.26°W
Report Text: KDEQ 211953Z AUTO 00000KT 10SM CLR 27/18 A3002 RMK AO2 SLP162 T02670178
Loading
Personal Weather Stations






























Interactive Weather Map
Tropical Storm Tracking
New forecast layout! Learn more

10-Day Weather Forecast

Advertisements
Track Severe Weather on mobile